sensor_id;sensor_type;location;lat;lon;timestamp;P1;durP1;ratioP1;P2;durP2;ratioP2
21352;SDS011;10834;52.268;6.770;2023-02-27T00:02:02;5.80;;;2.67;;
21352;SDS011;10834;52.268;6.770;2023-02-27T00:04:48;5.13;;;2.43;;
21352;SDS011;10834;52.268;6.770;2023-02-27T00:07:34;5.53;;;2.67;;
21352;SDS011;10834;52.268;6.770;2023-02-27T00:10:22;5.10;;;1.90;;
21352;SDS011;10834;52.268;6.770;2023-02-27T00:13:08;4.33;;;2.20;;
21352;SDS011;10834;52.268;6.770;2023-02-27T00:15:54;6.53;;;2.17;;
21352;SDS011;10834;52.268;6.770;2023-02-27T00:18:40;6.73;;;1.80;;
21352;SDS011;10834;52.268;6.770;2023-02-27T00:21:26;2.73;;;1.47;;
21352;SDS011;10834;52.268;6.770;2023-02-27T00:24:12;2.43;;;1.60;;
21352;SDS011;10834;52.268;6.770;2023-02-27T00:26:58;4.43;;;1.73;;
21352;SDS011;10834;52.268;6.770;2023-02-27T00:29:44;3.00;;;1.77;;
21352;SDS011;10834;52.268;6.770;2023-02-27T00:32:30;4.20;;;1.63;;
21352;SDS011;10834;52.268;6.770;2023-02-27T00:35:16;4.87;;;2.13;;
21352;SDS011;10834;52.268;6.770;2023-02-27T00:38:03;5.57;;;2.00;;
21352;SDS011;10834;52.268;6.770;2023-02-27T00:40:49;2.03;;;1.53;;
21352;SDS011;10834;52.268;6.770;2023-02-27T00:43:35;3.40;;;1.90;;
21352;SDS011;10834;52.268;6.770;2023-02-27T00:46:21;2.27;;;1.20;;
21352;SDS011;10834;52.268;6.770;2023-02-27T00:49:07;7.87;;;2.40;;
21352;SDS011;10834;52.268;6.770;2023-02-27T00:51:53;3.97;;;1.80;;
21352;SDS011;10834;52.268;6.770;2023-02-27T00:54:40;2.80;;;1.77;;
21352;SDS011;10834;52.268;6.770;2023-02-27T00:57:26;3.00;;;1.77;;
21352;SDS011;10834;52.268;6.770;2023-02-27T01:00:12;5.23;;;2.20;;
21352;SDS011;10834;52.268;6.770;2023-02-27T01:02:58;4.00;;;1.83;;
21352;SDS011;10834;52.268;6.770;2023-02-27T01:05:44;4.23;;;1.90;;
21352;SDS011;10834;52.268;6.770;2023-02-27T01:08:30;5.03;;;2.00;;
21352;SDS011;10834;52.268;6.770;2023-02-27T01:11:16;6.13;;;2.17;;
21352;SDS011;10834;52.268;6.770;2023-02-27T01:14:02;3.00;;;1.70;;
21352;SDS011;10834;52.268;6.770;2023-02-27T01:16:48;2.93;;;1.80;;
21352;SDS011;10834;52.268;6.770;2023-02-27T01:19:34;3.77;;;2.40;;
21352;SDS011;10834;52.268;6.770;2023-02-27T01:22:20;5.33;;;2.30;;
21352;SDS011;10834;52.268;6.770;2023-02-27T01:25:07;4.70;;;2.37;;
21352;SDS011;10834;52.268;6.770;2023-02-27T01:27:53;3.67;;;2.30;;
21352;SDS011;10834;52.268;6.770;2023-02-27T01:30:39;3.27;;;1.70;;
21352;SDS011;10834;52.268;6.770;2023-02-27T01:33:26;4.07;;;2.13;;
21352;SDS011;10834;52.268;6.770;2023-02-27T01:36:13;2.93;;;2.23;;
21352;SDS011;10834;52.268;6.770;2023-02-27T01:38:59;5.70;;;2.03;;
21352;SDS011;10834;52.268;6.770;2023-02-27T01:41:45;3.20;;;2.17;;
21352;SDS011;10834;52.268;6.770;2023-02-27T01:44:33;4.87;;;2.20;;
21352;SDS011;10834;52.268;6.770;2023-02-27T01:53:43;8.87;;;2.37;;
21352;SDS011;10834;52.268;6.770;2023-02-27T01:56:32;3.43;;;2.30;;
21352;SDS011;10834;52.268;6.770;2023-02-27T01:59:18;2.10;;;1.70;;
21352;SDS011;10834;52.268;6.770;2023-02-27T02:02:07;4.20;;;2.03;;
21352;SDS011;10834;52.268;6.770;2023-02-27T02:04:58;4.23;;;1.40;;
21352;SDS011;10834;52.268;6.770;2023-02-27T02:07:45;4.33;;;2.53;;
21352;SDS011;10834;52.268;6.770;2023-02-27T02:10:33;4.47;;;2.00;;
21352;SDS011;10834;52.268;6.770;2023-02-27T02:13:20;4.50;;;1.83;;
21352;SDS011;10834;52.268;6.770;2023-02-27T02:16:17;3.90;;;2.13;;
21352;SDS011;10834;52.268;6.770;2023-02-27T02:46:55;11.07;;;3.37;;
21352;SDS011;10834;52.268;6.770;2023-02-27T02:50:18;8.17;;;4.60;;
21352;SDS011;10834;52.268;6.770;2023-02-27T02:53:12;5.90;;;3.93;;
21352;SDS011;10834;52.268;6.770;2023-02-27T02:56:41;5.73;;;3.43;;
21352;SDS011;10834;52.268;6.770;2023-02-27T02:59:41;4.17;;;2.73;;
21352;SDS011;10834;52.268;6.770;2023-02-27T03:02:47;6.17;;;2.70;;
21352;SDS011;10834;52.268;6.770;2023-02-27T03:05:38;4.00;;;2.87;;
21352;SDS011;10834;52.268;6.770;2023-02-27T03:08:33;7.60;;;2.57;;
21352;SDS011;10834;52.268;6.770;2023-02-27T03:11:26;5.63;;;2.43;;
21352;SDS011;10834;52.268;6.770;2023-02-27T03:14:19;5.23;;;2.53;;
21352;SDS011;10834;52.268;6.770;2023-02-27T03:17:17;4.07;;;2.00;;
21352;SDS011;10834;52.268;6.770;2023-02-27T03:20:11;4.90;;;2.50;;
21352;SDS011;10834;52.268;6.770;2023-02-27T03:23:03;3.60;;;2.57;;
21352;SDS011;10834;52.268;6.770;2023-02-27T03:25:57;4.50;;;2.67;;
21352;SDS011;10834;52.268;6.770;2023-02-27T03:29:03;6.10;;;2.47;;
21352;SDS011;10834;52.268;6.770;2023-02-27T03:31:55;5.80;;;2.20;;
21352;SDS011;10834;52.268;6.770;2023-02-27T03:34:45;6.13;;;2.73;;
21352;SDS011;10834;52.268;6.770;2023-02-27T03:46:38;10.17;;;2.90;;
21352;SDS011;10834;52.268;6.770;2023-02-27T03:49:25;4.93;;;2.83;;
21352;SDS011;10834;52.268;6.770;2023-02-27T03:52:11;5.67;;;3.27;;
21352;SDS011;10834;52.268;6.770;2023-02-27T03:55:05;3.27;;;2.43;;
21352;SDS011;10834;52.268;6.770;2023-02-27T03:58:04;5.43;;;2.27;;
21352;SDS011;10834;52.268;6.770;2023-02-27T04:00:51;3.97;;;2.27;;
21352;SDS011;10834;52.268;6.770;2023-02-27T04:03:40;3.43;;;2.60;;
21352;SDS011;10834;52.268;6.770;2023-02-27T04:06:31;4.70;;;2.40;;
21352;SDS011;10834;52.268;6.770;2023-02-27T04:13:19;4.67;;;2.47;;
21352;SDS011;10834;52.268;6.770;2023-02-27T04:19:37;6.30;;;2.40;;
21352;SDS011;10834;52.268;6.770;2023-02-27T04:28:28;4.17;;;2.40;;
21352;SDS011;10834;52.268;6.770;2023-02-27T04:31:19;7.87;;;2.67;;
21352;SDS011;10834;52.268;6.770;2023-02-27T04:34:28;4.23;;;2.23;;
21352;SDS011;10834;52.268;6.770;2023-02-27T04:37:25;5.03;;;2.63;;
21352;SDS011;10834;52.268;6.770;2023-02-27T04:40:17;3.87;;;2.43;;
21352;SDS011;10834;52.268;6.770;2023-02-27T04:43:08;2.87;;;2.37;;
21352;SDS011;10834;52.268;6.770;2023-02-27T04:45:58;4.50;;;2.30;;
21352;SDS011;10834;52.268;6.770;2023-02-27T04:48:48;7.03;;;2.90;;
21352;SDS011;10834;52.268;6.770;2023-02-27T04:51:41;3.67;;;2.53;;
21352;SDS011;10834;52.268;6.770;2023-02-27T04:54:38;3.63;;;2.30;;
21352;SDS011;10834;52.268;6.770;2023-02-27T04:57:40;4.17;;;2.53;;
21352;SDS011;10834;52.268;6.770;2023-02-27T05:00:53;4.80;;;2.40;;
21352;SDS011;10834;52.268;6.770;2023-02-27T05:03:53;3.47;;;2.63;;
21352;SDS011;10834;52.268;6.770;2023-02-27T05:06:42;5.37;;;2.57;;
21352;SDS011;10834;52.268;6.770;2023-02-27T05:12:37;5.77;;;2.70;;
21352;SDS011;10834;52.268;6.770;2023-02-27T05:15:51;4.77;;;2.70;;
21352;SDS011;10834;52.268;6.770;2023-02-27T05:18:52;4.67;;;2.93;;
21352;SDS011;10834;52.268;6.770;2023-02-27T05:25:00;14.33;;;3.80;;
21352;SDS011;10834;52.268;6.770;2023-02-27T05:30:53;5.83;;;3.10;;
21352;SDS011;10834;52.268;6.770;2023-02-27T05:34:04;8.00;;;2.93;;
21352;SDS011;10834;52.268;6.770;2023-02-27T05:37:00;6.67;;;3.40;;
21352;SDS011;10834;52.268;6.770;2023-02-27T05:39:52;4.00;;;2.80;;
21352;SDS011;10834;52.268;6.770;2023-02-27T05:42:39;6.20;;;2.47;;
21352;SDS011;10834;52.268;6.770;2023-02-27T05:45:30;6.33;;;3.00;;
21352;SDS011;10834;52.268;6.770;2023-02-27T05:48:26;6.63;;;2.80;;
21352;SDS011;10834;52.268;6.770;2023-02-27T05:51:14;8.37;;;2.97;;
21352;SDS011;10834;52.268;6.770;2023-02-27T05:54:09;4.57;;;2.93;;
21352;SDS011;10834;52.268;6.770;2023-02-27T05:57:15;3.50;;;2.17;;
21352;SDS011;10834;52.268;6.770;2023-02-27T06:00:20;6.60;;;2.93;;
21352;SDS011;10834;52.268;6.770;2023-02-27T06:03:17;4.37;;;2.60;;
21352;SDS011;10834;52.268;6.770;2023-02-27T06:06:04;6.93;;;2.70;;
21352;SDS011;10834;52.268;6.770;2023-02-27T06:08:52;6.80;;;2.77;;
21352;SDS011;10834;52.268;6.770;2023-02-27T06:11:38;5.07;;;2.60;;
21352;SDS011;10834;52.268;6.770;2023-02-27T06:14:24;5.60;;;2.53;;
21352;SDS011;10834;52.268;6.770;2023-02-27T06:17:10;3.73;;;2.70;;
21352;SDS011;10834;52.268;6.770;2023-02-27T06:19:57;8.37;;;3.23;;
21352;SDS011;10834;52.268;6.770;2023-02-27T06:22:43;7.13;;;2.77;;
21352;SDS011;10834;52.268;6.770;2023-02-27T06:25:29;4.30;;;2.63;;
21352;SDS011;10834;52.268;6.770;2023-02-27T06:28:15;6.30;;;3.27;;
21352;SDS011;10834;52.268;6.770;2023-02-27T06:31:01;7.33;;;3.07;;
21352;SDS011;10834;52.268;6.770;2023-02-27T06:33:47;6.93;;;3.20;;
21352;SDS011;10834;52.268;6.770;2023-02-27T06:36:33;4.27;;;2.73;;
21352;SDS011;10834;52.268;6.770;2023-02-27T06:39:19;7.40;;;3.30;;
21352;SDS011;10834;52.268;6.770;2023-02-27T06:42:05;4.60;;;2.70;;
21352;SDS011;10834;52.268;6.770;2023-02-27T06:44:51;7.77;;;3.03;;
21352;SDS011;10834;52.268;6.770;2023-02-27T06:47:38;3.07;;;2.20;;
21352;SDS011;10834;52.268;6.770;2023-02-27T06:50:24;6.63;;;3.27;;
21352;SDS011;10834;52.268;6.770;2023-02-27T06:53:10;7.23;;;3.17;;
21352;SDS011;10834;52.268;6.770;2023-02-27T06:55:56;6.00;;;2.83;;
21352;SDS011;10834;52.268;6.770;2023-02-27T06:58:42;8.70;;;2.87;;
21352;SDS011;10834;52.268;6.770;2023-02-27T07:01:28;4.97;;;2.83;;
21352;SDS011;10834;52.268;6.770;2023-02-27T07:04:14;4.57;;;3.07;;
21352;SDS011;10834;52.268;6.770;2023-02-27T07:07:01;13.70;;;3.63;;
21352;SDS011;10834;52.268;6.770;2023-02-27T07:09:47;5.73;;;3.37;;
21352;SDS011;10834;52.268;6.770;2023-02-27T07:12:33;5.10;;;3.33;;
21352;SDS011;10834;52.268;6.770;2023-02-27T07:15:19;6.20;;;3.37;;
21352;SDS011;10834;52.268;6.770;2023-02-27T07:18:05;4.63;;;3.17;;
21352;SDS011;10834;52.268;6.770;2023-02-27T07:20:52;6.70;;;3.50;;
21352;SDS011;10834;52.268;6.770;2023-02-27T07:23:40;9.10;;;4.00;;
21352;SDS011;10834;52.268;6.770;2023-02-27T07:26:26;6.07;;;3.70;;
21352;SDS011;10834;52.268;6.770;2023-02-27T07:29:12;11.07;;;4.67;;
21352;SDS011;10834;52.268;6.770;2023-02-27T07:31:59;9.57;;;4.60;;
21352;SDS011;10834;52.268;6.770;2023-02-27T07:34:45;7.30;;;4.53;;
21352;SDS011;10834;52.268;6.770;2023-02-27T07:37:32;7.97;;;4.60;;
21352;SDS011;10834;52.268;6.770;2023-02-27T07:40:18;8.47;;;5.07;;
21352;SDS011;10834;52.268;6.770;2023-02-27T07:43:04;8.17;;;4.23;;
21352;SDS011;10834;52.268;6.770;2023-02-27T07:45:50;12.23;;;5.23;;
21352;SDS011;10834;52.268;6.770;2023-02-27T07:48:36;7.03;;;4.67;;
21352;SDS011;10834;52.268;6.770;2023-02-27T07:51:24;9.77;;;5.70;;
21352;SDS011;10834;52.268;6.770;2023-02-27T07:54:10;9.03;;;5.10;;
21352;SDS011;10834;52.268;6.770;2023-02-27T07:56:56;6.50;;;4.10;;
21352;SDS011;10834;52.268;6.770;2023-02-27T07:59:42;6.90;;;4.47;;
21352;SDS011;10834;52.268;6.770;2023-02-27T08:02:28;5.47;;;4.07;;
21352;SDS011;10834;52.268;6.770;2023-02-27T08:05:14;5.13;;;4.17;;
21352;SDS011;10834;52.268;6.770;2023-02-27T08:08:00;7.50;;;4.37;;
21352;SDS011;10834;52.268;6.770;2023-02-27T08:10:48;10.40;;;4.17;;
21352;SDS011;10834;52.268;6.770;2023-02-27T08:13:34;5.57;;;4.03;;
21352;SDS011;10834;52.268;6.770;2023-02-27T08:16:20;10.97;;;4.33;;
21352;SDS011;10834;52.268;6.770;2023-02-27T08:19:06;6.70;;;3.53;;
21352;SDS011;10834;52.268;6.770;2023-02-27T08:21:52;9.50;;;4.07;;
21352;SDS011;10834;52.268;6.770;2023-02-27T08:24:38;6.40;;;3.80;;
21352;SDS011;10834;52.268;6.770;2023-02-27T08:27:25;6.37;;;4.27;;
21352;SDS011;10834;52.268;6.770;2023-02-27T08:30:11;9.27;;;3.80;;
21352;SDS011;10834;52.268;6.770;2023-02-27T08:32:57;6.57;;;3.57;;
21352;SDS011;10834;52.268;6.770;2023-02-27T08:35:43;5.87;;;3.43;;
21352;SDS011;10834;52.268;6.770;2023-02-27T08:38:29;9.83;;;4.80;;
21352;SDS011;10834;52.268;6.770;2023-02-27T08:41:15;6.07;;;4.40;;
21352;SDS011;10834;52.268;6.770;2023-02-27T08:44:02;5.73;;;2.33;;
21352;SDS011;10834;52.268;6.770;2023-02-27T08:46:48;5.07;;;2.53;;
21352;SDS011;10834;52.268;6.770;2023-02-27T08:49:34;4.63;;;2.50;;
21352;SDS011;10834;52.268;6.770;2023-02-27T08:52:21;8.10;;;2.53;;
21352;SDS011;10834;52.268;6.770;2023-02-27T08:55:07;6.37;;;3.10;;
21352;SDS011;10834;52.268;6.770;2023-02-27T08:57:53;10.63;;;3.33;;
21352;SDS011;10834;52.268;6.770;2023-02-27T09:00:39;6.77;;;3.10;;
21352;SDS011;10834;52.268;6.770;2023-02-27T09:03:25;4.03;;;2.67;;
21352;SDS011;10834;52.268;6.770;2023-02-27T09:06:13;6.17;;;2.87;;
21352;SDS011;10834;52.268;6.770;2023-02-27T09:08:59;6.43;;;2.77;;
21352;SDS011;10834;52.268;6.770;2023-02-27T09:11:45;10.43;;;3.70;;
21352;SDS011;10834;52.268;6.770;2023-02-27T09:14:31;7.90;;;3.03;;
21352;SDS011;10834;52.268;6.770;2023-02-27T09:17:17;5.33;;;3.13;;
21352;SDS011;10834;52.268;6.770;2023-02-27T09:20:04;5.27;;;2.60;;
21352;SDS011;10834;52.268;6.770;2023-02-27T09:22:53;5.97;;;2.53;;
21352;SDS011;10834;52.268;6.770;2023-02-27T09:25:39;7.50;;;3.00;;
21352;SDS011;10834;52.268;6.770;2023-02-27T09:28:25;4.77;;;3.90;;
21352;SDS011;10834;52.268;6.770;2023-02-27T09:31:11;5.90;;;2.83;;
21352;SDS011;10834;52.268;6.770;2023-02-27T09:33:57;6.33;;;3.20;;
21352;SDS011;10834;52.268;6.770;2023-02-27T09:36:45;14.30;;;3.60;;
21352;SDS011;10834;52.268;6.770;2023-02-27T09:39:32;4.10;;;3.13;;
21352;SDS011;10834;52.268;6.770;2023-02-27T09:42:18;5.13;;;2.70;;
21352;SDS011;10834;52.268;6.770;2023-02-27T09:45:08;3.00;;;2.70;;
21352;SDS011;10834;52.268;6.770;2023-02-27T09:48:20;7.70;;;2.93;;
21352;SDS011;10834;52.268;6.770;2023-02-27T09:51:18;4.73;;;2.53;;
21352;SDS011;10834;52.268;6.770;2023-02-27T09:54:05;6.17;;;2.80;;
21352;SDS011;10834;52.268;6.770;2023-02-27T09:56:53;11.70;;;3.23;;
21352;SDS011;10834;52.268;6.770;2023-02-27T09:59:43;4.57;;;2.97;;
21352;SDS011;10834;52.268;6.770;2023-02-27T10:02:58;4.23;;;3.07;;
21352;SDS011;10834;52.268;6.770;2023-02-27T10:12:19;5.80;;;2.43;;
21352;SDS011;10834;52.268;6.770;2023-02-27T10:15:15;4.00;;;2.70;;
21352;SDS011;10834;52.268;6.770;2023-02-27T10:18:11;6.67;;;2.30;;
21352;SDS011;10834;52.268;6.770;2023-02-27T10:21:03;5.10;;;2.20;;
21352;SDS011;10834;52.268;6.770;2023-02-27T10:27:15;7.53;;;2.43;;
21352;SDS011;10834;52.268;6.770;2023-02-27T10:30:36;6.97;;;2.00;;
21352;SDS011;10834;52.268;6.770;2023-02-27T10:36:11;5.50;;;2.07;;
21352;SDS011;10834;52.268;6.770;2023-02-27T10:38:59;3.53;;;2.73;;
21352;SDS011;10834;52.268;6.770;2023-02-27T10:41:53;5.47;;;2.40;;
21352;SDS011;10834;52.268;6.770;2023-02-27T10:44:39;3.67;;;2.10;;
21352;SDS011;10834;52.268;6.770;2023-02-27T10:47:25;5.10;;;1.77;;
21352;SDS011;10834;52.268;6.770;2023-02-27T10:50:28;4.50;;;1.70;;
21352;SDS011;10834;52.268;6.770;2023-02-27T10:53:22;4.50;;;2.40;;
21352;SDS011;10834;52.268;6.770;2023-02-27T10:56:12;5.70;;;1.60;;
21352;SDS011;10834;52.268;6.770;2023-02-27T10:59:04;3.97;;;1.83;;
21352;SDS011;10834;52.268;6.770;2023-02-27T11:01:55;3.03;;;1.53;;
21352;SDS011;10834;52.268;6.770;2023-02-27T11:05:01;1.57;;;1.10;;
21352;SDS011;10834;52.268;6.770;2023-02-27T11:07:49;2.07;;;1.40;;
21352;SDS011;10834;52.268;6.770;2023-02-27T11:10:35;2.13;;;1.53;;
21352;SDS011;10834;52.268;6.770;2023-02-27T11:13:23;2.30;;;1.17;;
21352;SDS011;10834;52.268;6.770;2023-02-27T11:16:12;3.47;;;1.40;;
21352;SDS011;10834;52.268;6.770;2023-02-27T11:19:04;1.73;;;1.17;;
21352;SDS011;10834;52.268;6.770;2023-02-27T11:22:13;2.80;;;1.77;;
21352;SDS011;10834;52.268;6.770;2023-02-27T11:25:18;2.43;;;1.40;;
21352;SDS011;10834;52.268;6.770;2023-02-27T11:31:21;1.73;;;0.60;;
21352;SDS011;10834;52.268;6.770;2023-02-27T11:34:13;1.60;;;0.87;;
21352;SDS011;10834;52.268;6.770;2023-02-27T11:40:14;3.27;;;1.30;;
21352;SDS011;10834;52.268;6.770;2023-02-27T11:43:18;2.13;;;0.90;;
21352;SDS011;10834;52.268;6.770;2023-02-27T11:46:06;3.83;;;1.10;;
21352;SDS011;10834;52.268;6.770;2023-02-27T11:52:12;1.40;;;0.73;;
21352;SDS011;10834;52.268;6.770;2023-02-27T11:55:11;4.13;;;0.87;;
21352;SDS011;10834;52.268;6.770;2023-02-27T11:58:23;1.47;;;1.00;;
21352;SDS011;10834;52.268;6.770;2023-02-27T12:01:14;4.33;;;1.10;;
21352;SDS011;10834;52.268;6.770;2023-02-27T12:04:28;1.60;;;1.00;;
21352;SDS011;10834;52.268;6.770;2023-02-27T12:10:20;1.97;;;1.07;;
21352;SDS011;10834;52.268;6.770;2023-02-27T12:13:20;2.40;;;1.20;;
21352;SDS011;10834;52.268;6.770;2023-02-27T12:16:17;5.03;;;1.30;;
21352;SDS011;10834;52.268;6.770;2023-02-27T12:19:17;1.33;;;0.90;;
21352;SDS011;10834;52.268;6.770;2023-02-27T12:25:06;1.23;;;0.83;;
21352;SDS011;10834;52.268;6.770;2023-02-27T12:31:51;2.60;;;1.63;;
21352;SDS011;10834;52.268;6.770;2023-02-27T12:34:54;4.73;;;1.50;;
21352;SDS011;10834;52.268;6.770;2023-02-27T12:37:52;3.03;;;0.87;;
21352;SDS011;10834;52.268;6.770;2023-02-27T12:40:39;4.13;;;1.10;;
21352;SDS011;10834;52.268;6.770;2023-02-27T12:49:57;1.07;;;0.97;;
21352;SDS011;10834;52.268;6.770;2023-02-27T12:55:36;4.90;;;1.30;;
21352;SDS011;10834;52.268;6.770;2023-02-27T13:01:50;2.83;;;0.90;;
21352;SDS011;10834;52.268;6.770;2023-02-27T13:04:54;2.13;;;0.97;;
21352;SDS011;10834;52.268;6.770;2023-02-27T13:14:19;3.10;;;1.00;;
21352;SDS011;10834;52.268;6.770;2023-02-27T13:17:30;8.80;;;1.47;;
21352;SDS011;10834;52.268;6.770;2023-02-27T13:20:32;1.83;;;1.03;;
21352;SDS011;10834;52.268;6.770;2023-02-27T13:23:30;2.27;;;1.40;;
21352;SDS011;10834;52.268;6.770;2023-02-27T13:26:38;5.40;;;1.50;;
21352;SDS011;10834;52.268;6.770;2023-02-27T13:29:38;2.20;;;1.47;;
21352;SDS011;10834;52.268;6.770;2023-02-27T13:38:02;2.20;;;1.43;;
21352;SDS011;10834;52.268;6.770;2023-02-27T13:53:17;3.00;;;1.50;;
21352;SDS011;10834;52.268;6.770;2023-02-27T13:56:17;2.90;;;1.33;;
21352;SDS011;10834;52.268;6.770;2023-02-27T13:59:12;4.07;;;1.80;;
21352;SDS011;10834;52.268;6.770;2023-02-27T14:02:20;5.17;;;2.43;;
21352;SDS011;10834;52.268;6.770;2023-02-27T14:05:15;7.50;;;2.13;;
21352;SDS011;10834;52.268;6.770;2023-02-27T14:14:07;2.23;;;1.70;;
21352;SDS011;10834;52.268;6.770;2023-02-27T14:17:38;2.33;;;1.50;;
21352;SDS011;10834;52.268;6.770;2023-02-27T14:26:14;3.00;;;2.13;;
21352;SDS011;10834;52.268;6.770;2023-02-27T14:29:04;3.40;;;2.67;;
21352;SDS011;10834;52.268;6.770;2023-02-27T14:31:51;4.23;;;2.70;;
21352;SDS011;10834;52.268;6.770;2023-02-27T14:34:39;4.70;;;2.20;;
21352;SDS011;10834;52.268;6.770;2023-02-27T14:37:25;3.63;;;2.20;;
21352;SDS011;10834;52.268;6.770;2023-02-27T14:40:20;4.13;;;2.60;;
21352;SDS011;10834;52.268;6.770;2023-02-27T14:44:15;2.70;;;2.40;;
21352;SDS011;10834;52.268;6.770;2023-02-27T14:46:39;4.57;;;3.00;;
21352;SDS011;10834;52.268;6.770;2023-02-27T14:49:29;2.50;;;2.30;;
21352;SDS011;10834;52.268;6.770;2023-02-27T14:52:22;5.40;;;2.33;;
21352;SDS011;10834;52.268;6.770;2023-02-27T15:00:59;5.77;;;2.70;;
21352;SDS011;10834;52.268;6.770;2023-02-27T15:03:50;5.73;;;2.33;;
21352;SDS011;10834;52.268;6.770;2023-02-27T15:06:49;5.07;;;2.70;;
21352;SDS011;10834;52.268;6.770;2023-02-27T15:09:37;2.97;;;2.20;;
21352;SDS011;10834;52.268;6.770;2023-02-27T15:12:27;4.60;;;2.47;;
21352;SDS011;10834;52.268;6.770;2023-02-27T15:15:15;2.73;;;2.20;;
21352;SDS011;10834;52.268;6.770;2023-02-27T15:18:10;2.53;;;2.10;;
21352;SDS011;10834;52.268;6.770;2023-02-27T15:20:57;4.23;;;2.50;;
21352;SDS011;10834;52.268;6.770;2023-02-27T15:23:52;4.83;;;2.40;;
21352;SDS011;10834;52.268;6.770;2023-02-27T15:26:39;4.13;;;2.47;;
21352;SDS011;10834;52.268;6.770;2023-02-27T15:32:44;2.53;;;1.63;;
21352;SDS011;10834;52.268;6.770;2023-02-27T15:35:34;3.83;;;1.77;;
21352;SDS011;10834;52.268;6.770;2023-02-27T15:38:23;3.43;;;1.93;;
21352;SDS011;10834;52.268;6.770;2023-02-27T15:41:18;3.37;;;1.97;;
21352;SDS011;10834;52.268;6.770;2023-02-27T15:44:04;5.80;;;1.50;;
21352;SDS011;10834;52.268;6.770;2023-02-27T15:46:50;3.27;;;2.27;;
21352;SDS011;10834;52.268;6.770;2023-02-27T15:49:38;3.70;;;1.90;;
21352;SDS011;10834;52.268;6.770;2023-02-27T15:52:25;3.00;;;1.93;;
21352;SDS011;10834;52.268;6.770;2023-02-27T15:55:20;2.50;;;1.40;;
21352;SDS011;10834;52.268;6.770;2023-02-27T15:58:18;2.83;;;1.40;;
21352;SDS011;10834;52.268;6.770;2023-02-27T16:01:19;1.80;;;1.70;;
21352;SDS011;10834;52.268;6.770;2023-02-27T16:04:13;4.23;;;1.67;;
21352;SDS011;10834;52.268;6.770;2023-02-27T16:07:14;3.50;;;1.57;;
21352;SDS011;10834;52.268;6.770;2023-02-27T16:10:06;4.47;;;1.40;;
21352;SDS011;10834;52.268;6.770;2023-02-27T16:16:21;1.87;;;1.57;;
21352;SDS011;10834;52.268;6.770;2023-02-27T16:19:26;3.43;;;1.37;;
21352;SDS011;10834;52.268;6.770;2023-02-27T16:22:18;2.33;;;1.17;;
21352;SDS011;10834;52.268;6.770;2023-02-27T16:25:08;2.43;;;1.40;;
21352;SDS011;10834;52.268;6.770;2023-02-27T16:27:55;2.60;;;1.37;;
21352;SDS011;10834;52.268;6.770;2023-02-27T16:30:41;4.03;;;1.60;;
21352;SDS011;10834;52.268;6.770;2023-02-27T16:33:29;2.17;;;1.30;;
21352;SDS011;10834;52.268;6.770;2023-02-27T16:36:19;1.97;;;1.57;;
21352;SDS011;10834;52.268;6.770;2023-02-27T16:39:11;4.07;;;1.67;;
21352;SDS011;10834;52.268;6.770;2023-02-27T16:41:58;4.23;;;1.33;;
21352;SDS011;10834;52.268;6.770;2023-02-27T16:44:45;1.37;;;1.27;;
21352;SDS011;10834;52.268;6.770;2023-02-27T16:47:31;3.07;;;1.60;;
21352;SDS011;10834;52.268;6.770;2023-02-27T16:50:19;2.00;;;1.50;;
21352;SDS011;10834;52.268;6.770;2023-02-27T16:53:06;2.70;;;1.40;;
21352;SDS011;10834;52.268;6.770;2023-02-27T16:55:53;2.27;;;1.33;;
21352;SDS011;10834;52.268;6.770;2023-02-27T16:58:39;1.57;;;1.40;;
21352;SDS011;10834;52.268;6.770;2023-02-27T17:01:25;3.97;;;1.87;;
21352;SDS011;10834;52.268;6.770;2023-02-27T17:04:12;3.37;;;1.63;;
21352;SDS011;10834;52.268;6.770;2023-02-27T17:06:58;2.67;;;2.00;;
21352;SDS011;10834;52.268;6.770;2023-02-27T17:09:46;1.67;;;1.30;;
21352;SDS011;10834;52.268;6.770;2023-02-27T17:12:32;2.87;;;2.00;;
21352;SDS011;10834;52.268;6.770;2023-02-27T17:15:18;3.00;;;2.30;;
21352;SDS011;10834;52.268;6.770;2023-02-27T17:18:05;4.47;;;2.57;;
21352;SDS011;10834;52.268;6.770;2023-02-27T17:20:51;4.87;;;2.33;;
21352;SDS011;10834;52.268;6.770;2023-02-27T17:23:38;3.67;;;2.03;;
21352;SDS011;10834;52.268;6.770;2023-02-27T17:26:24;5.70;;;2.70;;
21352;SDS011;10834;52.268;6.770;2023-02-27T17:29:11;3.43;;;2.43;;
21352;SDS011;10834;52.268;6.770;2023-02-27T17:31:59;2.97;;;2.20;;
21352;SDS011;10834;52.268;6.770;2023-02-27T17:34:45;3.53;;;2.30;;
21352;SDS011;10834;52.268;6.770;2023-02-27T17:37:31;5.33;;;2.90;;
21352;SDS011;10834;52.268;6.770;2023-02-27T17:40:17;7.60;;;3.33;;
21352;SDS011;10834;52.268;6.770;2023-02-27T17:43:03;8.83;;;4.30;;
21352;SDS011;10834;52.268;6.770;2023-02-27T17:45:49;6.80;;;4.10;;
21352;SDS011;10834;52.268;6.770;2023-02-27T17:48:36;7.03;;;4.10;;
21352;SDS011;10834;52.268;6.770;2023-02-27T17:51:23;9.93;;;4.57;;
21352;SDS011;10834;52.268;6.770;2023-02-27T17:54:08;5.03;;;4.00;;
21352;SDS011;10834;52.268;6.770;2023-02-27T17:56:54;8.27;;;4.47;;
21352;SDS011;10834;52.268;6.770;2023-02-27T17:59:41;6.73;;;4.90;;
21352;SDS011;10834;52.268;6.770;2023-02-27T18:02:27;9.17;;;5.00;;
21352;SDS011;10834;52.268;6.770;2023-02-27T18:05:14;5.93;;;4.90;;
21352;SDS011;10834;52.268;6.770;2023-02-27T18:08:00;8.17;;;5.17;;
21352;SDS011;10834;52.268;6.770;2023-02-27T18:10:46;10.90;;;5.43;;
21352;SDS011;10834;52.268;6.770;2023-02-27T18:13:33;11.60;;;5.53;;
21352;SDS011;10834;52.268;6.770;2023-02-27T18:16:19;7.73;;;4.90;;
21352;SDS011;10834;52.268;6.770;2023-02-27T18:19:06;10.77;;;5.90;;
21352;SDS011;10834;52.268;6.770;2023-02-27T18:21:52;7.50;;;4.70;;
21352;SDS011;10834;52.268;6.770;2023-02-27T18:24:38;6.97;;;4.40;;
21352;SDS011;10834;52.268;6.770;2023-02-27T18:27:24;12.07;;;5.13;;
21352;SDS011;10834;52.268;6.770;2023-02-27T18:30:12;7.20;;;4.83;;
21352;SDS011;10834;52.268;6.770;2023-02-27T18:32:58;11.60;;;6.00;;
21352;SDS011;10834;52.268;6.770;2023-02-27T18:35:45;9.17;;;5.03;;
21352;SDS011;10834;52.268;6.770;2023-02-27T18:38:31;8.43;;;5.20;;
21352;SDS011;10834;52.268;6.770;2023-02-27T18:41:17;7.13;;;4.43;;
21352;SDS011;10834;52.268;6.770;2023-02-27T18:44:04;5.40;;;4.40;;
21352;SDS011;10834;52.268;6.770;2023-02-27T18:46:51;7.07;;;3.67;;
21352;SDS011;10834;52.268;6.770;2023-02-27T18:49:37;7.40;;;4.53;;
21352;SDS011;10834;52.268;6.770;2023-02-27T18:52:24;5.07;;;3.03;;
21352;SDS011;10834;52.268;6.770;2023-02-27T18:55:10;4.23;;;3.10;;
21352;SDS011;10834;52.268;6.770;2023-02-27T18:57:56;5.07;;;3.50;;
21352;SDS011;10834;52.268;6.770;2023-02-27T19:00:42;8.53;;;3.20;;
21352;SDS011;10834;52.268;6.770;2023-02-27T19:03:28;3.97;;;2.97;;
21352;SDS011;10834;52.268;6.770;2023-02-27T19:06:15;4.40;;;2.77;;
21352;SDS011;10834;52.268;6.770;2023-02-27T19:09:19;4.67;;;3.57;;
21352;SDS011;10834;52.268;6.770;2023-02-27T19:12:06;4.57;;;3.17;;
21352;SDS011;10834;52.268;6.770;2023-02-27T19:14:55;6.77;;;4.00;;
21352;SDS011;10834;52.268;6.770;2023-02-27T19:17:41;9.30;;;4.47;;
21352;SDS011;10834;52.268;6.770;2023-02-27T19:20:27;10.10;;;4.17;;
21352;SDS011;10834;52.268;6.770;2023-02-27T19:23:13;6.87;;;4.30;;
21352;SDS011;10834;52.268;6.770;2023-02-27T19:25:59;9.07;;;4.17;;
21352;SDS011;10834;52.268;6.770;2023-02-27T19:28:48;6.80;;;4.47;;
21352;SDS011;10834;52.268;6.770;2023-02-27T19:31:38;12.63;;;4.07;;
21352;SDS011;10834;52.268;6.770;2023-02-27T19:34:24;8.77;;;4.03;;
21352;SDS011;10834;52.268;6.770;2023-02-27T19:37:10;7.23;;;4.93;;
21352;SDS011;10834;52.268;6.770;2023-02-27T19:39:57;4.60;;;4.03;;
21352;SDS011;10834;52.268;6.770;2023-02-27T19:42:43;8.70;;;5.03;;
21352;SDS011;10834;52.268;6.770;2023-02-27T19:45:29;10.07;;;5.27;;
21352;SDS011;10834;52.268;6.770;2023-02-27T19:48:15;7.67;;;4.53;;